createdAt,value
2023-05-23T00:00:54.232Z,3.95
2023-05-23T00:02:57.205Z,3.75
2023-05-23T00:04:59.837Z,3.63
2023-05-23T00:07:03.718Z,3.88
2023-05-23T00:09:06.308Z,3.63
2023-05-23T00:11:08.937Z,3.60
2023-05-23T00:13:13.326Z,4.03
2023-05-23T00:15:15.932Z,3.42
2023-05-23T00:17:18.596Z,3.97
2023-05-23T00:19:21.364Z,2.85
2023-05-23T00:21:24.497Z,3.75
2023-05-23T00:23:29.824Z,3.70
2023-05-23T00:25:34.437Z,3.80
2023-05-23T00:27:37.249Z,3.45
2023-05-23T00:29:39.854Z,3.63
2023-05-23T00:31:46.800Z,4.43
2023-05-23T00:33:49.732Z,3.05
2023-05-23T00:35:52.569Z,3.55
2023-05-23T00:37:55.786Z,3.80
2023-05-23T00:39:58.409Z,3.53
2023-05-23T00:42:05.720Z,3.40
2023-05-23T00:44:10.152Z,3.08
2023-05-23T00:46:13.265Z,3.20
2023-05-23T00:48:16.497Z,3.58
2023-05-23T00:50:19.845Z,3.75
2023-05-23T00:52:22.486Z,3.78
2023-05-23T00:54:27.541Z,3.78
2023-05-23T00:56:30.647Z,3.67
2023-05-23T00:58:33.413Z,2.90
2023-05-23T01:00:38.711Z,2.72
2023-05-23T01:02:47.519Z,3.90
2023-05-23T01:04:54.627Z,3.45
2023-05-23T01:06:58.086Z,3.53
2023-05-23T01:09:02.975Z,3.85
2023-05-23T01:11:17.048Z,3.80
2023-05-23T01:13:38.635Z,3.42
2023-05-23T01:15:49.887Z,3.67
2023-05-23T01:17:55.816Z,3.97
2023-05-23T01:20:01.420Z,3.20
2023-05-23T01:22:17.011Z,2.90
2023-05-23T01:24:52.701Z,3.97
2023-05-23T01:27:16.940Z,3.45
2023-05-23T01:29:29.958Z,4.18
2023-05-23T01:31:35.417Z,3.30
2023-05-23T01:33:40.309Z,3.13
2023-05-23T01:35:44.125Z,3.60
2023-05-23T01:37:46.719Z,3.20
2023-05-23T01:39:49.317Z,3.65
2023-05-23T01:41:53.245Z,3.30
2023-05-23T01:43:56.398Z,4.00
2023-05-23T01:46:00.983Z,3.75
2023-05-23T01:48:04.978Z,3.10
2023-05-23T01:50:09.416Z,3.47
2023-05-23T01:52:13.441Z,3.45
2023-05-23T01:54:17.292Z,3.25
2023-05-23T01:56:21.886Z,4.28
2023-05-23T01:58:24.558Z,3.63
2023-05-23T02:00:27.406Z,3.83
2023-05-23T02:02:30.245Z,3.42
2023-05-23T02:04:33.088Z,3.90
2023-05-23T02:06:36.077Z,3.72
2023-05-23T02:08:39.238Z,3.55
2023-05-23T02:10:41.795Z,3.38
2023-05-23T02:12:44.530Z,3.45
2023-05-23T02:14:47.297Z,4.18
2023-05-23T02:16:53.120Z,3.20
2023-05-23T02:18:59.592Z,4.50
2023-05-23T02:21:02.066Z,4.30
2023-05-23T02:23:05.866Z,3.67
2023-05-23T02:25:08.849Z,3.38
2023-05-23T02:27:11.645Z,3.13
2023-05-23T02:29:14.214Z,4.15
2023-05-23T02:31:17.516Z,3.40
2023-05-23T02:33:20.338Z,3.30
2023-05-23T02:35:22.932Z,3.47
2023-05-23T02:37:25.648Z,3.58
2023-05-23T02:39:28.402Z,3.35
2023-05-23T02:41:31.271Z,3.40
2023-05-23T02:43:33.965Z,3.50
2023-05-23T02:45:36.577Z,3.75
2023-05-23T02:47:39.184Z,3.92
2023-05-23T02:49:41.930Z,4.70
2023-05-23T02:51:44.566Z,3.53
2023-05-23T02:53:47.229Z,3.35
2023-05-23T02:55:49.924Z,3.20
2023-05-23T02:57:52.546Z,3.85
2023-05-23T02:59:55.209Z,3.53
2023-05-23T03:01:57.913Z,3.67
2023-05-23T03:04:00.630Z,3.30
2023-05-23T03:06:05.271Z,4.45
2023-05-23T03:08:08.758Z,4.07
2023-05-23T03:10:11.731Z,3.42
2023-05-23T03:12:14.732Z,3.42
2023-05-23T03:14:17.732Z,3.45
2023-05-23T03:16:20.364Z,3.80
2023-05-23T03:18:23.018Z,4.95
2023-05-23T03:20:25.701Z,3.75
2023-05-23T03:22:28.346Z,3.60
2023-05-23T03:24:32.102Z,3.90
2023-05-23T03:26:34.806Z,4.10
2023-05-23T03:28:37.530Z,3.60
2023-05-23T03:30:40.238Z,3.78
2023-05-23T03:32:43.100Z,3.65
2023-05-23T03:34:45.821Z,3.60
2023-05-23T03:36:48.478Z,4.15
2023-05-23T03:38:51.149Z,3.78
2023-05-23T03:40:54.210Z,4.53
2023-05-23T03:43:06.933Z,3.20
2023-05-23T03:45:09.828Z,3.97
2023-05-23T03:47:12.480Z,3.63
2023-05-23T03:49:15.517Z,3.72
2023-05-23T03:51:18.522Z,3.58
2023-05-23T03:53:21.257Z,3.72
2023-05-23T03:55:25.655Z,3.55
2023-05-23T03:57:28.478Z,3.72
2023-05-23T03:59:31.080Z,4.22
2023-05-23T04:01:33.680Z,3.22
2023-05-23T04:03:36.847Z,3.25
2023-05-23T04:05:39.782Z,3.58
2023-05-23T04:07:43.824Z,3.67
2023-05-23T04:09:46.576Z,3.40
2023-05-23T04:11:49.294Z,3.72
2023-05-23T04:13:52.302Z,3.15
2023-05-23T04:15:57.922Z,3.42
2023-05-23T04:18:01.005Z,3.47
2023-05-23T04:20:04.034Z,3.50
2023-05-23T04:22:07.062Z,3.50
2023-05-23T04:24:09.697Z,3.70
2023-05-23T04:26:13.404Z,4.18
2023-05-23T04:28:17.850Z,3.25
2023-05-23T04:30:20.702Z,3.90
2023-05-23T04:32:23.386Z,3.05
2023-05-23T04:34:26.344Z,4.32
2023-05-23T04:36:30.352Z,3.28
2023-05-23T04:38:33.548Z,4.28
2023-05-23T04:40:36.885Z,3.13
2023-05-23T04:42:42.522Z,3.58
2023-05-23T04:44:45.077Z,4.05
2023-05-23T04:46:47.812Z,3.65
2023-05-23T04:48:50.788Z,4.00
2023-05-23T04:50:56.138Z,3.33
2023-05-23T04:52:59.090Z,3.63
2023-05-23T04:55:01.992Z,3.08
2023-05-23T04:57:07.307Z,3.75
2023-05-23T04:59:11.640Z,3.80
2023-05-23T05:01:14.378Z,3.58
2023-05-23T05:03:17.870Z,3.90
2023-05-23T05:05:20.573Z,5.20
2023-05-23T05:07:23.198Z,4.32
2023-05-23T05:09:26.083Z,4.35
2023-05-23T05:11:28.810Z,4.45
2023-05-23T05:13:31.367Z,4.63
2023-05-23T05:15:33.892Z,4.05
2023-05-23T05:17:38.242Z,4.75
2023-05-23T05:19:40.956Z,4.60
2023-05-23T05:21:43.504Z,4.38
2023-05-23T05:23:46.435Z,4.82
2023-05-23T05:25:48.995Z,4.43
2023-05-23T05:27:52.853Z,3.92
2023-05-23T05:30:04.033Z,4.40
2023-05-23T05:32:09.864Z,5.15
2023-05-23T05:34:12.858Z,4.20
2023-05-23T05:36:15.726Z,4.43
2023-05-23T05:38:18.545Z,5.07
2023-05-23T05:40:21.227Z,4.78
2023-05-23T05:42:24.195Z,5.05
2023-05-23T05:44:27.226Z,4.63
2023-05-23T05:46:29.921Z,4.70
2023-05-23T05:48:32.856Z,4.68
2023-05-23T05:50:35.481Z,5.30
2023-05-23T05:52:41.427Z,4.78
2023-05-23T05:54:44.276Z,3.75
2023-05-23T05:56:47.901Z,4.47
2023-05-23T05:58:50.582Z,5.53
2023-05-23T06:00:53.782Z,4.90
2023-05-23T06:02:57.734Z,5.43
2023-05-23T06:05:00.603Z,4.90
2023-05-23T06:07:03.361Z,5.03
2023-05-23T06:09:05.877Z,5.18
2023-05-23T06:11:08.613Z,4.57
2023-05-23T06:13:11.284Z,4.78
2023-05-23T06:15:14.813Z,4.60
2023-05-23T06:17:17.829Z,5.20
2023-05-23T06:19:20.626Z,5.07
2023-05-23T06:21:23.319Z,4.82
2023-05-23T06:23:25.875Z,5.80
2023-05-23T06:25:28.558Z,5.35
2023-05-23T06:27:31.154Z,5.07
2023-05-23T06:29:35.937Z,5.13
2023-05-23T06:31:38.575Z,5.82
2023-05-23T06:33:41.131Z,6.95
2023-05-23T06:35:43.813Z,6.10
2023-05-23T06:37:46.631Z,6.78
2023-05-23T06:39:49.300Z,5.30
2023-05-23T06:41:51.866Z,6.35
2023-05-23T06:43:55.940Z,6.18
2023-05-23T06:45:58.521Z,5.93
2023-05-23T06:48:01.478Z,5.57
2023-05-23T06:50:04.858Z,5.55
2023-05-23T06:52:08.115Z,5.60
2023-05-23T06:54:11.695Z,5.78
2023-05-23T06:56:14.449Z,6.53
2023-05-23T06:58:17.060Z,7.80
2023-05-23T07:00:19.978Z,6.93
2023-05-23T07:02:23.255Z,7.55
2023-05-23T07:04:25.949Z,7.35
2023-05-23T07:06:28.643Z,7.65
2023-05-23T07:08:31.340Z,6.80
2023-05-23T07:10:35.431Z,6.43
2023-05-23T07:12:38.033Z,7.18
2023-05-23T07:14:40.837Z,8.05
2023-05-23T07:16:43.442Z,7.22
2023-05-23T07:18:46.139Z,7.65
2023-05-23T07:20:48.923Z,8.95
2023-05-23T07:22:51.796Z,10.85
2023-05-23T07:24:54.389Z,8.38
2023-05-23T07:26:57.186Z,8.10
2023-05-23T07:28:59.797Z,9.73
2023-05-23T07:31:02.429Z,9.85
2023-05-23T07:33:05.099Z,8.85
2023-05-23T07:35:08.034Z,8.75
2023-05-23T07:37:10.686Z,7.97
2023-05-23T07:39:14.934Z,9.43
2023-05-23T07:41:17.940Z,9.70
2023-05-23T07:43:20.645Z,8.88
2023-05-23T07:45:23.387Z,9.40
2023-05-23T07:47:26.021Z,9.48
2023-05-23T07:49:28.563Z,9.55
2023-05-23T07:51:31.900Z,8.77
2023-05-23T07:53:35.245Z,10.32
2023-05-23T07:55:37.938Z,9.75
2023-05-23T07:57:40.718Z,10.43
2023-05-23T07:59:43.362Z,10.18
2023-05-23T08:01:46.162Z,10.50
2023-05-23T08:03:48.883Z,9.77
2023-05-23T08:05:51.884Z,10.52
2023-05-23T08:07:55.303Z,9.18
2023-05-23T08:09:58.057Z,9.65
2023-05-23T08:12:00.971Z,10.07
2023-05-23T08:14:03.925Z,9.93
2023-05-23T08:16:06.661Z,9.43
2023-05-23T08:18:09.396Z,9.82
2023-05-23T08:20:12.444Z,8.88
2023-05-23T08:22:15.273Z,8.23
2023-05-23T08:24:17.945Z,9.40
2023-05-23T08:26:20.726Z,8.98
2023-05-23T08:28:23.557Z,9.27
2023-05-23T08:30:27.644Z,9.82
2023-05-23T08:32:30.308Z,9.98
2023-05-23T08:34:33.357Z,8.85
2023-05-23T08:36:36.928Z,8.77
2023-05-23T08:38:39.674Z,8.40
2023-05-23T08:40:49.655Z,8.68
2023-05-23T08:42:52.795Z,9.35
2023-05-23T08:44:55.446Z,9.13
2023-05-23T08:47:05.633Z,8.32
2023-05-23T08:49:08.966Z,8.77
2023-05-23T08:51:14.230Z,8.35
2023-05-23T08:53:20.857Z,7.70
2023-05-23T08:55:30.370Z,8.35
2023-05-23T08:57:34.264Z,9.00
2023-05-23T08:59:39.344Z,7.57
2023-05-23T09:01:44.125Z,7.78
2023-05-23T09:03:50.516Z,8.88
2023-05-23T09:05:54.742Z,7.82
2023-05-23T09:07:57.365Z,9.35
2023-05-23T09:10:00.161Z,8.30
2023-05-23T09:12:03.582Z,8.05
2023-05-23T09:14:08.240Z,8.88
2023-05-23T09:16:12.908Z,7.85
2023-05-23T09:18:15.698Z,8.07
2023-05-23T09:20:18.530Z,8.77
2023-05-23T09:22:27.801Z,7.90
2023-05-23T09:24:39.388Z,7.60
2023-05-23T09:26:42.121Z,8.45
2023-05-23T09:28:45.285Z,7.32
2023-05-23T09:30:48.057Z,8.90
2023-05-23T09:33:05.635Z,8.88
2023-05-23T09:35:12.552Z,8.50
2023-05-23T09:37:19.656Z,7.63
2023-05-23T09:39:22.436Z,7.80
2023-05-23T09:41:25.296Z,8.85
2023-05-23T09:43:29.237Z,8.40
2023-05-23T09:45:32.725Z,9.13
2023-05-23T09:47:35.359Z,10.07
2023-05-23T09:49:41.633Z,8.05
2023-05-23T09:51:44.322Z,8.45
2023-05-23T09:53:47.498Z,8.77
2023-05-23T09:55:55.905Z,9.45
2023-05-23T09:58:00.104Z,9.93
2023-05-23T10:00:11.171Z,10.18
2023-05-23T10:02:17.549Z,9.25
2023-05-23T10:04:25.252Z,10.27
2023-05-23T10:06:42.118Z,8.57
2023-05-23T10:08:50.668Z,8.13
2023-05-23T10:11:26.133Z,9.18
2023-05-23T10:13:29.511Z,8.20
2023-05-23T10:15:40.456Z,9.05
2023-05-23T10:17:57.051Z,9.07
2023-05-23T10:20:09.162Z,9.57
2023-05-23T10:22:16.685Z,9.23
2023-05-23T10:24:20.805Z,9.35
2023-05-23T10:26:23.635Z,8.65
2023-05-23T10:28:27.437Z,8.82
2023-05-23T10:30:30.106Z,8.85
2023-05-23T10:32:34.106Z,8.27
2023-05-23T10:34:57.979Z,9.50
2023-05-23T10:37:06.477Z,10.70
2023-05-23T10:39:31.198Z,10.65
2023-05-23T10:41:49.406Z,9.10
2023-05-23T10:44:00.845Z,10.02
2023-05-23T10:46:03.717Z,11.02
2023-05-23T10:48:21.964Z,11.27
2023-05-23T10:50:35.938Z,10.40
2023-05-23T10:52:41.305Z,8.55
2023-05-23T10:54:45.541Z,12.48
2023-05-23T10:57:03.245Z,8.30
2023-05-23T10:59:10.800Z,7.90
2023-05-23T11:01:18.269Z,14.18
2023-05-23T11:03:48.597Z,9.85
2023-05-23T11:05:55.188Z,9.25
2023-05-23T11:08:13.915Z,8.80
2023-05-23T11:10:20.293Z,9.65
2023-05-23T11:12:38.345Z,10.50
2023-05-23T11:14:46.648Z,13.23
2023-05-23T11:16:49.997Z,15.45
2023-05-23T11:18:53.098Z,10.68
2023-05-23T11:20:55.929Z,9.75
2023-05-23T11:23:03.057Z,8.25
2023-05-23T11:25:10.603Z,9.50
2023-05-23T11:27:13.544Z,8.95
2023-05-23T11:29:16.810Z,8.55
2023-05-23T11:31:19.564Z,8.00
2023-05-23T11:33:22.286Z,9.05
2023-05-23T11:35:25.088Z,9.57
2023-05-23T11:37:28.311Z,9.27
2023-05-23T11:39:31.002Z,8.23
2023-05-23T11:41:35.974Z,8.57
2023-05-23T11:43:50.173Z,8.50
2023-05-23T11:45:52.905Z,9.85
2023-05-23T11:47:56.120Z,9.85
2023-05-23T11:50:01.389Z,8.80
2023-05-23T11:52:06.701Z,8.88
2023-05-23T11:54:09.399Z,8.40
2023-05-23T11:56:12.152Z,8.82
2023-05-23T11:58:15.044Z,9.35
2023-05-23T12:00:19.151Z,8.68
2023-05-23T12:02:25.356Z,9.70
2023-05-23T12:04:28.402Z,8.65
2023-05-23T12:06:32.941Z,9.07
2023-05-23T12:08:35.527Z,8.05
2023-05-23T12:10:38.240Z,8.98
2023-05-23T12:12:42.843Z,8.18
2023-05-23T12:14:45.622Z,8.73
2023-05-23T12:16:48.686Z,8.20
2023-05-23T12:18:53.422Z,8.85
2023-05-23T12:20:56.166Z,8.23
2023-05-23T12:22:58.824Z,7.65
2023-05-23T12:25:01.849Z,7.75
2023-05-23T12:27:05.377Z,7.40
2023-05-23T12:29:08.041Z,7.97
2023-05-23T12:31:14.288Z,8.55
2023-05-23T12:33:19.011Z,7.30
2023-05-23T12:35:22.240Z,8.18
2023-05-23T12:37:25.973Z,8.25
2023-05-23T12:39:28.933Z,7.60
2023-05-23T12:41:33.420Z,7.57
2023-05-23T12:43:49.315Z,8.02
2023-05-23T12:45:51.916Z,8.35
2023-05-23T12:47:54.633Z,7.38
2023-05-23T12:49:57.450Z,7.97
2023-05-23T12:52:00.040Z,8.00
2023-05-23T12:54:02.729Z,7.35
2023-05-23T12:56:06.193Z,7.38
2023-05-23T12:58:08.755Z,7.68
2023-05-23T13:00:12.833Z,8.63
2023-05-23T13:02:15.796Z,7.80
2023-05-23T13:04:18.792Z,7.78
2023-05-23T13:06:21.875Z,7.07
2023-05-23T13:08:25.280Z,7.40
2023-05-23T13:10:28.973Z,7.60
2023-05-23T13:12:34.478Z,8.18
2023-05-23T13:14:37.397Z,7.40
2023-05-23T13:16:41.013Z,7.90
2023-05-23T13:18:43.962Z,8.52
2023-05-23T13:20:46.975Z,7.32
2023-05-23T13:22:50.144Z,8.60
2023-05-23T13:24:52.780Z,6.15
2023-05-23T13:26:55.271Z,8.05
2023-05-23T13:28:58.251Z,7.53
2023-05-23T13:31:01.844Z,7.47
2023-05-23T13:33:05.233Z,7.35
2023-05-23T13:35:08.291Z,6.65
2023-05-23T13:37:11.020Z,7.43
2023-05-23T13:39:14.588Z,7.57
2023-05-23T13:41:17.782Z,8.35
2023-05-23T13:43:20.517Z,7.10
2023-05-23T13:45:23.527Z,7.97
2023-05-23T13:47:26.652Z,6.93
2023-05-23T13:49:29.426Z,7.18
2023-05-23T13:51:32.764Z,7.57
2023-05-23T13:53:35.803Z,7.32
2023-05-23T13:55:38.997Z,6.20
2023-05-23T13:57:41.716Z,6.70
2023-05-23T13:59:44.365Z,6.82
2023-05-23T14:01:47.979Z,7.72
2023-05-23T14:03:50.823Z,7.38
2023-05-23T14:05:53.606Z,7.32
2023-05-23T14:07:56.527Z,5.85
2023-05-23T14:10:00.021Z,7.85
2023-05-23T14:12:03.970Z,7.55
2023-05-23T14:14:06.730Z,7.03
2023-05-23T14:16:09.435Z,6.97
2023-05-23T14:18:12.088Z,7.07
2023-05-23T14:20:14.698Z,7.30
2023-05-23T14:22:17.412Z,6.95
2023-05-23T14:24:20.123Z,6.22
2023-05-23T14:26:22.750Z,6.70
2023-05-23T14:28:25.377Z,5.75
2023-05-23T14:30:27.991Z,6.00
2023-05-23T14:32:33.408Z,6.57
2023-05-23T14:34:36.274Z,5.82
2023-05-23T14:36:38.867Z,6.18
2023-05-23T14:38:41.950Z,7.10
2023-05-23T14:40:45.682Z,6.30
2023-05-23T14:42:48.821Z,5.03
2023-05-23T14:44:53.739Z,4.85
2023-05-23T14:46:56.478Z,4.30
2023-05-23T14:48:59.030Z,5.30
2023-05-23T14:51:02.089Z,5.35
2023-05-23T14:53:04.958Z,6.30
2023-05-23T14:55:07.961Z,5.93
2023-05-23T14:57:10.842Z,5.68
2023-05-23T14:59:13.522Z,5.05
2023-05-23T15:01:16.671Z,5.07
2023-05-23T15:03:19.645Z,5.22
2023-05-23T15:05:22.418Z,5.72
2023-05-23T15:07:25.093Z,5.90
2023-05-23T15:09:28.561Z,5.03
2023-05-23T15:11:32.361Z,5.75
2023-05-23T15:13:35.096Z,6.32
2023-05-23T15:15:37.989Z,5.32
2023-05-23T15:17:40.571Z,6.32
2023-05-23T15:19:44.808Z,4.95
2023-05-23T15:21:50.950Z,5.07
2023-05-23T15:23:54.547Z,6.93
2023-05-23T15:25:57.256Z,5.85
2023-05-23T15:27:59.943Z,5.10
2023-05-23T15:30:03.701Z,6.90
2023-05-23T15:32:09.383Z,6.60
2023-05-23T15:34:12.015Z,5.93
2023-05-23T15:36:14.899Z,6.82
2023-05-23T15:38:19.853Z,6.05
2023-05-23T15:40:23.005Z,5.72
2023-05-23T15:42:25.635Z,6.35
2023-05-23T15:44:28.355Z,6.18
2023-05-23T15:46:31.111Z,5.80
2023-05-23T15:48:33.890Z,5.10
2023-05-23T15:50:37.105Z,6.30
2023-05-23T15:52:39.740Z,4.93
2023-05-23T15:54:42.408Z,6.80
2023-05-23T15:56:45.066Z,6.75
2023-05-23T15:58:47.680Z,6.65
2023-05-23T16:00:50.290Z,6.80
2023-05-23T16:02:53.250Z,6.30
2023-05-23T16:04:57.765Z,4.70
2023-05-23T16:07:00.360Z,6.50
2023-05-23T16:09:03.299Z,6.57
2023-05-23T16:11:05.955Z,6.50
2023-05-23T16:13:09.289Z,6.32
2023-05-23T16:15:12.134Z,6.82
2023-05-23T16:17:14.729Z,5.60
2023-05-23T16:19:17.365Z,7.28
2023-05-23T16:21:21.032Z,5.47
2023-05-23T16:23:24.392Z,7.50
2023-05-23T16:25:27.077Z,5.85
2023-05-23T16:27:29.732Z,6.45
2023-05-23T16:29:32.343Z,6.35
2023-05-23T16:31:35.754Z,6.00
2023-05-23T16:33:38.520Z,5.78
2023-05-23T16:35:41.517Z,7.10
2023-05-23T16:37:44.602Z,8.25
2023-05-23T16:39:47.540Z,6.47
2023-05-23T16:41:50.104Z,6.93
2023-05-23T16:43:52.760Z,6.68
2023-05-23T16:45:55.650Z,6.15
2023-05-23T16:47:58.452Z,6.80
2023-05-23T16:50:01.198Z,5.85
2023-05-23T16:52:06.043Z,7.35
2023-05-23T16:54:09.277Z,7.78
2023-05-23T16:56:11.950Z,8.15
2023-05-23T16:58:14.745Z,6.60
2023-05-23T17:00:17.579Z,7.90
2023-05-23T17:02:20.250Z,8.13
2023-05-23T17:04:23.080Z,8.27
2023-05-23T17:06:25.836Z,8.77
2023-05-23T17:08:28.436Z,8.68
2023-05-23T17:10:31.347Z,6.93
2023-05-23T17:12:34.003Z,8.43
2023-05-23T17:14:36.946Z,7.20
2023-05-23T17:16:39.717Z,8.07
2023-05-23T17:18:42.414Z,8.82
2023-05-23T17:20:45.044Z,9.55
2023-05-23T17:22:47.975Z,6.82
2023-05-23T17:24:50.588Z,8.90
2023-05-23T17:26:53.197Z,7.18
2023-05-23T17:28:56.057Z,7.38
2023-05-23T17:30:58.644Z,7.40
2023-05-23T17:33:01.467Z,8.57
2023-05-23T17:35:04.518Z,7.57
2023-05-23T17:37:07.172Z,7.00
2023-05-23T17:39:09.965Z,7.03
2023-05-23T17:41:14.191Z,7.15
2023-05-23T17:43:16.841Z,8.15
2023-05-23T17:45:19.482Z,7.43
2023-05-23T17:47:22.185Z,7.00
2023-05-23T17:49:25.015Z,7.90
2023-05-23T17:51:27.612Z,6.68
2023-05-23T17:53:30.633Z,8.05
2023-05-23T17:55:33.612Z,7.18
2023-05-23T17:57:36.362Z,7.97
2023-05-23T17:59:38.923Z,8.63
2023-05-23T18:01:41.784Z,7.88
2023-05-23T18:03:44.574Z,9.00
2023-05-23T18:05:47.304Z,7.25
2023-05-23T18:07:50.619Z,7.18
2023-05-23T18:09:53.278Z,7.95
2023-05-23T18:11:56.478Z,8.32
2023-05-23T18:13:59.222Z,8.60
2023-05-23T18:16:01.810Z,8.52
2023-05-23T18:18:04.766Z,7.75
2023-05-23T18:20:08.216Z,8.13
2023-05-23T18:22:11.058Z,8.23
2023-05-23T18:24:13.731Z,7.68
2023-05-23T18:26:16.537Z,7.82
2023-05-23T18:28:19.175Z,8.32
2023-05-23T18:30:21.927Z,7.47
2023-05-23T18:32:24.733Z,8.65
2023-05-23T18:34:29.135Z,8.88
2023-05-23T18:36:32.440Z,8.80
2023-05-23T18:38:36.018Z,7.18
2023-05-23T18:40:38.679Z,7.20
2023-05-23T18:42:41.585Z,6.15
2023-05-23T18:44:44.380Z,6.43
2023-05-23T18:46:47.181Z,7.40
2023-05-23T18:48:50.118Z,6.68
2023-05-23T18:50:52.908Z,7.28
2023-05-23T18:52:55.752Z,6.68
2023-05-23T18:54:58.773Z,6.85
2023-05-23T18:57:01.740Z,6.70
2023-05-23T18:59:04.505Z,8.20
2023-05-23T19:01:07.338Z,7.05
2023-05-23T19:03:10.416Z,6.97
2023-05-23T19:05:13.284Z,7.35
2023-05-23T19:07:16.399Z,6.32
2023-05-23T19:09:19.183Z,6.70
2023-05-23T19:11:22.739Z,6.00
2023-05-23T19:13:26.283Z,5.88
2023-05-23T19:15:29.075Z,6.15
2023-05-23T19:17:31.673Z,6.50
2023-05-23T19:19:37.743Z,5.80
2023-05-23T19:21:40.646Z,6.60
2023-05-23T19:23:43.360Z,6.65
2023-05-23T19:25:46.056Z,5.57
2023-05-23T19:27:48.969Z,6.53
2023-05-23T19:29:51.528Z,7.40
2023-05-23T19:31:54.998Z,6.50
2023-05-23T19:33:57.718Z,6.28
2023-05-23T19:36:00.405Z,5.47
2023-05-23T19:38:03.093Z,6.55
2023-05-23T19:40:06.432Z,5.25
2023-05-23T19:42:09.006Z,6.40
2023-05-23T19:44:12.135Z,6.45
2023-05-23T19:46:15.870Z,5.45
2023-05-23T19:48:18.971Z,8.35
2023-05-23T19:50:22.264Z,7.47
2023-05-23T19:52:25.060Z,5.95
2023-05-23T19:54:28.319Z,4.85
2023-05-23T19:56:31.323Z,6.22
2023-05-23T19:58:36.308Z,6.28
2023-05-23T20:00:39.069Z,6.10
2023-05-23T20:02:42.703Z,5.45
2023-05-23T20:04:45.532Z,4.70
2023-05-23T20:06:48.180Z,5.30
2023-05-23T20:08:50.794Z,6.72
2023-05-23T20:10:53.928Z,5.68
2023-05-23T20:12:56.622Z,5.18
2023-05-23T20:14:59.459Z,5.20
2023-05-23T20:17:02.250Z,6.00
2023-05-23T20:19:05.459Z,5.32
2023-05-23T20:21:08.155Z,6.45
2023-05-23T20:23:10.924Z,5.80
2023-05-23T20:25:13.587Z,5.05
2023-05-23T20:27:16.178Z,4.80
2023-05-23T20:29:18.844Z,4.90
2023-05-23T20:31:21.580Z,5.13
2023-05-23T20:33:25.000Z,4.75
2023-05-23T20:35:27.962Z,4.63
2023-05-23T20:37:30.610Z,5.05
2023-05-23T20:39:33.175Z,5.05
2023-05-23T20:41:35.827Z,5.38
2023-05-23T20:43:39.742Z,4.80
2023-05-23T20:45:43.084Z,5.57
2023-05-23T20:47:46.546Z,6.60
2023-05-23T20:49:49.311Z,5.15
2023-05-23T20:51:51.990Z,4.28
2023-05-23T20:53:54.829Z,5.45
2023-05-23T20:55:57.509Z,5.80
2023-05-23T20:58:00.214Z,4.82
2023-05-23T21:00:13.228Z,4.90
2023-05-23T21:02:16.177Z,4.75
2023-05-23T21:04:19.038Z,5.05
2023-05-23T21:06:22.569Z,5.70
2023-05-23T21:08:25.299Z,5.13
2023-05-23T21:10:27.963Z,5.35
2023-05-23T21:12:31.201Z,4.30
2023-05-23T21:14:33.919Z,4.85
2023-05-23T21:16:37.018Z,4.43
2023-05-23T21:18:39.588Z,4.43
2023-05-23T21:20:42.744Z,4.20
2023-05-23T21:22:45.708Z,5.32
2023-05-23T21:24:48.422Z,4.40
2023-05-23T21:26:51.602Z,4.55
2023-05-23T21:28:54.257Z,4.57
2023-05-23T21:30:56.963Z,5.18
2023-05-23T21:32:59.751Z,4.72
2023-05-23T21:35:02.617Z,4.25
2023-05-23T21:37:07.689Z,5.72
2023-05-23T21:39:10.541Z,4.20
2023-05-23T21:41:13.247Z,4.75
2023-05-23T21:43:15.808Z,4.50
2023-05-23T21:45:18.418Z,4.40
2023-05-23T21:47:22.088Z,5.43
2023-05-23T21:49:24.764Z,5.43
2023-05-23T21:51:27.731Z,4.35
2023-05-23T21:53:30.475Z,3.53
2023-05-23T21:55:33.076Z,4.60
2023-05-23T21:57:35.728Z,4.20
2023-05-23T21:59:38.667Z,4.00
2023-05-23T22:01:41.353Z,4.22
2023-05-23T22:03:44.095Z,4.28
2023-05-23T22:05:46.876Z,3.88
2023-05-23T22:07:49.462Z,4.32
2023-05-23T22:09:53.575Z,4.22
2023-05-23T22:11:56.724Z,3.85
2023-05-23T22:14:01.232Z,3.88
2023-05-23T22:16:05.513Z,4.75
2023-05-23T22:18:08.273Z,3.50
2023-05-23T22:20:14.829Z,3.97
2023-05-23T22:22:17.873Z,4.00
2023-05-23T22:24:20.541Z,4.00
2023-05-23T22:26:23.528Z,4.53
2023-05-23T22:28:26.318Z,4.03
2023-05-23T22:30:28.998Z,4.18
2023-05-23T22:32:31.636Z,4.20
2023-05-23T22:34:34.250Z,4.47
2023-05-23T22:36:37.053Z,4.10
2023-05-23T22:38:39.660Z,4.90
2023-05-23T22:40:42.412Z,5.05
2023-05-23T22:42:45.233Z,4.22
2023-05-23T22:44:48.304Z,3.95
2023-05-23T22:46:52.258Z,3.10
2023-05-23T22:48:55.434Z,4.18
2023-05-23T22:50:58.064Z,4.65
2023-05-23T22:53:01.122Z,3.97
2023-05-23T22:55:06.173Z,3.90
2023-05-23T22:57:09.922Z,3.45
2023-05-23T22:59:12.497Z,3.85
2023-05-23T23:01:15.932Z,3.75
2023-05-23T23:03:18.872Z,4.45
2023-05-23T23:05:22.432Z,3.20
2023-05-23T23:07:25.224Z,3.88
2023-05-23T23:09:28.214Z,4.97
2023-05-23T23:11:31.117Z,4.35
2023-05-23T23:13:33.873Z,3.78
2023-05-23T23:15:36.966Z,3.88
2023-05-23T23:17:39.767Z,4.07
2023-05-23T23:19:42.537Z,4.22
2023-05-23T23:21:45.447Z,4.32
2023-05-23T23:23:48.087Z,4.28
2023-05-23T23:25:50.941Z,4.07
2023-05-23T23:27:53.579Z,4.10
2023-05-23T23:29:57.455Z,3.55
2023-05-23T23:32:00.222Z,4.18
2023-05-23T23:34:02.916Z,4.00
2023-05-23T23:36:06.507Z,3.30
2023-05-23T23:38:09.171Z,4.90
2023-05-23T23:40:12.408Z,3.65
2023-05-23T23:42:15.063Z,4.40
2023-05-23T23:44:17.714Z,4.10
2023-05-23T23:46:21.079Z,3.97
2023-05-23T23:48:23.738Z,3.88
2023-05-23T23:50:27.072Z,3.58
2023-05-23T23:52:30.677Z,3.92
2023-05-23T23:54:33.305Z,4.25
2023-05-23T23:56:36.656Z,3.72
2023-05-23T23:58:39.200Z,3.80
